Time;durP1;ratioP1;P1;durP2;ratioP2;P2;SDS_P1;SDS_P2;PMS_P1;PMS_P2;Temp;Humidity;BMP_temperature;BMP_pressure;BME280_temperature;BME280_humidity;BME280_pressure;Samples;Min_cycle;Max_cycle;Signal;HPM_P1;HPM_P2
2022/08/19 00:00:09;;;;;;;5.10;4.07;;;30.20;99.90;;;;;;5077273;22;20055;-50
2022/08/19 00:02:35;;;;;;;6.93;4.95;;;30.20;99.90;;;;;;5092816;28;20028;-52
2022/08/19 00:05:04;;;;;;;5.80;4.15;;;30.20;99.90;;;;;;5074956;28;20107;-52
2022/08/19 00:07:29;;;;;;;4.47;3.63;;;30.20;99.90;;;;;;5093032;28;20111;-52
2022/08/19 00:09:55;;;;;;;5.85;4.00;;;30.20;99.90;;;;;;5092746;28;20127;-51
2022/08/19 00:12:21;;;;;;;6.03;4.00;;;30.20;99.90;;;;;;5092175;28;20020;-51
2022/08/19 00:14:47;;;;;;;5.90;4.30;;;30.10;99.90;;;;;;5092763;28;20421;-52
2022/08/19 00:17:13;;;;;;;4.32;3.50;;;30.20;99.90;;;;;;5092693;28;20095;-52
2022/08/19 00:19:40;;;;;;;5.35;3.90;;;30.20;99.90;;;;;;5074467;28;20396;-52
2022/08/19 00:22:08;;;;;;;6.00;4.13;;;30.10;99.90;;;;;;5092649;28;20490;-52
2022/08/19 00:24:35;;;;;;;6.65;4.80;;;30.10;99.90;;;;;;5092854;28;20112;-52
2022/08/19 00:27:01;;;;;;;4.55;3.85;;;30.10;99.90;;;;;;5092725;28;20024;-51
2022/08/19 00:29:28;;;;;;;5.65;4.10;;;30.10;99.90;;;;;;5092511;28;20557;-52
2022/08/19 00:31:55;;;;;;;4.75;3.83;;;30.10;99.90;;;;;;5092488;28;20431;-52
2022/08/19 00:34:22;;;;;;;6.70;4.10;;;30.10;99.90;;;;;;5092390;28;20035;-52
2022/08/19 00:36:49;;;;;;;6.18;4.35;;;30.10;99.90;;;;;;5092495;28;20016;-52
2022/08/19 00:39:16;;;;;;;5.22;4.20;;;30.10;99.90;;;;;;5092305;28;20028;-51
2022/08/19 00:41:43;;;;;;;;;;;30.00;99.90;;;;;;5074553;28;20028;-51
2022/08/19 00:44:15;;;;;;;5.72;3.67;;;30.00;99.90;;;;;;5092175;28;19904;-51
2022/08/19 00:46:44;;;;;;;4.75;3.63;;;30.10;99.90;;;;;;5092246;28;20020;-51
2022/08/19 00:49:15;;;;;;;5.22;4.00;;;30.10;99.90;;;;;;5092012;28;20471;-50
2022/08/19 00:51:42;;;;;;;6.05;3.88;;;30.00;99.90;;;;;;5092112;28;20429;-51
2022/08/19 00:54:08;;;;;;;;;;;30.00;99.90;;;;;;5092525;28;20020;-52
2022/08/19 00:56:35;;;;;;;5.68;3.50;;;30.00;99.90;;;;;;5092318;28;19986;-51
2022/08/19 00:59:02;;;;;;;5.33;3.63;;;30.00;99.90;;;;;;5092278;28;20138;-51
2022/08/19 01:01:28;;;;;;;6.57;3.85;;;30.00;99.90;;;;;;5085984;22;20067;-48
2022/08/19 01:03:54;;;;;;;5.13;3.58;;;30.00;99.90;;;;;;5071679;28;20099;-48
2022/08/19 01:06:20;;;;;;;5.60;3.80;;;30.00;99.90;;;;;;5071686;28;20020;-48
2022/08/19 01:08:46;;;;;;;4.90;3.67;;;30.00;99.90;;;;;;5071447;28;20031;-49
2022/08/19 01:11:12;;;;;;;7.28;3.92;;;30.00;99.90;;;;;;5053479;28;20025;-48
2022/08/19 01:13:38;;;;;;;4.95;3.40;;;29.90;99.90;;;;;;5071614;28;20016;-48
2022/08/19 01:16:09;;;;;;;5.28;3.38;;;29.90;99.90;;;;;;5071726;28;20039;-49
2022/08/19 01:18:41;;;;;;;6.00;3.70;;;29.90;99.90;;;;;;5071726;28;20027;-49
2022/08/19 01:21:18;;;;;;;4.43;3.53;;;29.90;99.90;;;;;;5071735;28;20481;-48
2022/08/19 01:23:44;;;;;;;4.45;3.13;;;29.90;99.90;;;;;;5070432;28;20103;-49
2022/08/19 01:26:22;;;;;;;5.73;3.60;;;29.90;99.90;;;;;;5071374;28;20036;-48
2022/08/19 01:28:50;;;;;;;4.80;3.63;;;29.90;99.90;;;;;;5071074;28;20260;-49
2022/08/19 01:31:20;;;;;;;6.53;3.70;;;29.90;99.90;;;;;;5071360;28;20369;-48
2022/08/19 01:33:47;;;;;;;5.97;3.90;;;29.90;99.90;;;;;;5071336;28;20027;-48
2022/08/19 01:36:28;;;;;;;6.30;3.72;;;29.90;99.90;;;;;;5071299;28;20029;-48
2022/08/19 01:38:54;;;;;;;5.15;3.80;;;29.90;99.90;;;;;;5071143;28;20032;-49
2022/08/19 01:41:20;;;;;;;5.50;3.60;;;29.90;99.90;;;;;;5071092;28;20043;-49
2022/08/19 01:43:46;;;;;;;4.70;3.30;;;29.90;99.90;;;;;;5071125;28;20392;-48
2022/08/19 01:46:12;;;;;;;4.55;3.67;;;29.90;99.90;;;;;;5071166;28;20029;-48
2022/08/19 01:48:41;;;;;;;5.35;4.18;;;29.90;99.90;;;;;;5053074;28;20028;-49
2022/08/19 01:51:07;;;;;;;4.95;3.78;;;29.80;99.90;;;;;;5071197;28;20021;-48
2022/08/19 01:53:34;;;;;;;5.72;3.45;;;29.90;99.90;;;;;;5071036;28;20350;-48
2022/08/19 01:56:00;;;;;;;4.53;3.22;;;29.80;99.90;;;;;;5071153;28;20060;-48
2022/08/19 01:58:38;;;;;;;4.57;3.63;;;29.90;99.90;;;;;;5070970;28;20029;-48
2022/08/19 02:01:05;;;;;;;5.00;3.53;;;29.80;99.90;;;;;;5071590;28;20504;-49
2022/08/19 02:03:31;;;;;;;4.88;2.97;;;29.80;99.90;;;;;;5053127;28;20388;-49
2022/08/19 02:06:02;;;;;;;4.90;3.60;;;29.80;99.90;;;;;;5070859;28;20028;-48
2022/08/19 02:08:29;;;;;;;5.40;3.67;;;29.70;99.90;;;;;;5070897;28;20396;-48
2022/08/19 02:10:56;;;;;;;5.50;3.22;;;29.80;99.90;;;;;;5070821;28;20170;-48
2022/08/19 02:13:23;;;;;;;8.35;3.85;;;29.70;99.90;;;;;;5070826;28;20025;-49
2022/08/19 02:15:49;;;;;;;6.47;3.60;;;29.70;99.90;;;;;;5070961;28;20151;-48
2022/08/19 02:18:15;;;;;;;5.88;3.50;;;29.70;99.90;;;;;;5070866;28;20477;-48
2022/08/19 02:20:42;;;;;;;4.43;3.50;;;29.70;99.90;;;;;;5070921;28;20418;-48
2022/08/19 02:23:08;;;;;;;;;;;29.70;99.90;;;;;;5071298;28;20039;-48
2022/08/19 02:25:34;;;;;;;4.53;3.38;;;29.70;99.90;;;;;;5070848;28;19908;-49
2022/08/19 02:27:59;;;;;;;6.40;3.75;;;29.70;99.90;;;;;;5070631;28;20021;-48
2022/08/19 02:30:25;;;;;;;5.57;3.70;;;29.70;99.90;;;;;;5070471;28;20040;-48
2022/08/19 02:32:52;;;;;;;4.82;3.13;;;29.70;99.90;;;;;;5070703;28;20020;-48
2022/08/19 02:35:19;;;;;;;6.60;3.83;;;29.70;99.90;;;;;;5072651;28;20042;-48
2022/08/19 02:40:34;;;;;;;6.55;3.90;;;29.70;99.90;;;;;;5074530;28;20040;-48
2022/08/19 02:43:06;;;;;;;5.95;3.60;;;29.70;99.90;;;;;;5074366;28;20048;-48
2022/08/19 02:45:37;;;;;;;5.95;3.58;;;29.70;99.90;;;;;;5056745;28;20029;-48
2022/08/19 02:48:04;;;;;;;4.93;3.65;;;29.70;99.90;;;;;;5074322;28;20422;-48
2022/08/19 02:50:29;;;;;;;4.80;3.70;;;29.70;99.90;;;;;;5074046;28;20062;-48
2022/08/19 02:52:55;;;;;;;6.38;3.63;;;29.70;99.90;;;;;;5074157;28;20099;-48
2022/08/19 02:55:21;;;;;;;5.13;3.65;;;29.70;99.90;;;;;;5074161;28;20060;-48
2022/08/19 02:57:47;;;;;;;6.85;3.53;;;29.60;99.90;;;;;;5074040;28;20468;-47
2022/08/19 03:00:14;;;;;;;3.58;3.10;;;29.60;99.90;;;;;;5074809;28;20040;-47
2022/08/19 03:02:40;;;;;;;4.07;3.00;;;29.60;99.90;;;;;;5074268;28;20472;-48
2022/08/19 03:05:09;;;;;;;4.63;3.03;;;29.60;99.90;;;;;;5073970;28;20059;-48
2022/08/19 03:07:35;;;;;;;4.60;3.30;;;29.60;99.90;;;;;;5073999;28;20032;-48
2022/08/19 03:10:01;;;;;;;6.15;3.97;;;29.60;99.90;;;;;;5073799;28;20051;-48
2022/08/19 03:12:27;;;;;;;6.15;3.85;;;29.60;99.90;;;;;;5073762;28;20024;-47
2022/08/19 03:14:53;;;;;;;4.05;3.28;;;29.70;99.90;;;;;;5073784;28;20430;-48
2022/08/19 03:17:19;;;;;;;6.07;3.20;;;29.60;99.90;;;;;;5073657;28;20054;-48
2022/08/19 03:19:45;;;;;;;6.80;3.60;;;29.70;99.90;;;;;;5073844;28;20101;-48
2022/08/19 03:22:11;;;;;;;5.05;3.78;;;29.60;99.90;;;;;;5073847;28;20029;-48
2022/08/19 03:24:38;;;;;;;3.45;2.90;;;29.60;99.90;;;;;;5073550;28;20091;-48
2022/08/19 03:27:04;;;;;;;3.47;3.00;;;29.60;99.90;;;;;;5073569;28;20024;-48
2022/08/19 03:29:31;;;;;;;4.88;3.35;;;29.60;99.90;;;;;;5074006;28;20036;-48
2022/08/19 03:32:03;;;;;;;4.35;3.10;;;29.60;99.90;;;;;;5073427;28;20028;-48
2022/08/19 03:34:31;;;;;;;5.22;3.42;;;29.60;99.90;;;;;;5073410;28;20047;-48
2022/08/19 03:37:02;;;;;;;4.95;2.90;;;29.60;99.90;;;;;;5073565;28;20504;-48
2022/08/19 03:39:28;;;;;;;5.97;3.28;;;29.60;99.90;;;;;;5073172;28;20104;-48
2022/08/19 03:42:01;;;;;;;3.35;3.05;;;29.60;99.90;;;;;;5073192;28;20024;-48
2022/08/19 03:44:26;;;;;;;5.35;3.28;;;29.50;99.90;;;;;;5073165;28;20031;-48
2022/08/19 03:46:57;;;;;;;4.10;2.80;;;29.50;99.90;;;;;;5072265;28;20017;-49
2022/08/19 03:49:26;;;;;;;6.05;3.67;;;29.50;99.90;;;;;;5072858;28;20051;-48
2022/08/19 03:51:53;;;;;;;4.80;2.88;;;29.50;99.90;;;;;;5072837;28;20052;-48
2022/08/19 03:54:22;;;;;;;5.47;3.40;;;29.50;99.90;;;;;;5072884;28;20440;-48
2022/08/19 03:56:50;;;;;;;6.70;3.58;;;29.60;99.90;;;;;;5072940;28;20027;-48
2022/08/19 03:59:20;;;;;;;5.13;3.35;;;29.50;99.90;;;;;;5073602;28;20495;-48
2022/08/19 04:01:46;;;;;;;4.38;3.35;;;29.50;99.90;;;;;;5073302;28;20053;-49
2022/08/19 04:04:12;;;;;;;5.65;3.33;;;29.50;99.90;;;;;;5072758;28;20021;-49
2022/08/19 04:06:38;;;;;;;5.95;3.10;;;29.50;99.90;;;;;;5072677;28;20078;-49
2022/08/19 04:09:06;;;;;;;5.68;3.20;;;29.50;99.90;;;;;;5054622;28;20028;-48
2022/08/19 04:11:39;;;;;;;4.03;2.90;;;29.50;99.90;;;;;;5072507;28;20064;-48
2022/08/19 04:14:04;;;;;;;4.18;2.80;;;29.50;99.90;;;;;;5072505;28;20024;-49
2022/08/19 04:16:30;;;;;;;5.15;3.72;;;29.50;99.90;;;;;;5072343;28;20096;-49
2022/08/19 04:18:59;;;;;;;3.00;2.70;;;29.50;99.90;;;;;;5072502;28;20071;-48
2022/08/19 04:21:27;;;;;;;3.70;2.80;;;29.50;99.90;;;;;;5054369;28;20373;-49
2022/08/19 04:23:54;;;;;;;4.85;3.15;;;29.50;99.90;;;;;;5072254;28;20048;-48
2022/08/19 04:26:33;;;;;;;2.75;2.50;;;29.50;99.90;;;;;;5072237;28;20032;-49
2022/08/19 04:29:00;;;;;;;3.67;2.40;;;29.50;99.90;;;;;;5072065;28;20040;-48
2022/08/19 04:31:28;;;;;;;4.93;3.03;;;29.50;99.90;;;;;;5072170;28;20103;-48
2022/08/19 04:34:01;;;;;;;4.15;2.95;;;29.50;99.90;;;;;;5072071;28;20114;-48
2022/08/19 04:36:31;;;;;;;4.47;2.92;;;29.50;99.90;;;;;;5072007;28;20036;-48
2022/08/19 04:39:05;;;;;;;3.70;2.58;;;29.50;99.90;;;;;;5071954;28;20473;-50
2022/08/19 04:44:17;;;;;;;4.63;2.80;;;29.50;99.90;;;;;;5072161;28;20365;-48
2022/08/19 04:46:44;;;;;;;2.92;2.33;;;29.50;99.90;;;;;;5071835;28;20029;-48
2022/08/19 04:49:11;;;;;;;3.30;2.85;;;29.50;99.90;;;;;;5071771;28;20039;-48
2022/08/19 04:51:39;;;;;;;3.63;2.58;;;29.40;99.90;;;;;;5071988;28;20111;-48
2022/08/19 04:54:05;;;;;;;5.10;3.38;;;29.50;99.90;;;;;;5071719;28;20389;-48
2022/08/19 04:56:31;;;;;;;5.18;3.05;;;29.50;99.90;;;;;;5071684;28;20040;-48
2022/08/19 04:58:57;;;;;;;3.58;2.92;;;29.50;99.90;;;;;;5071608;28;20027;-48
2022/08/19 05:01:28;;;;;;;4.25;2.85;;;29.50;99.90;;;;;;5071308;28;20072;-48
2022/08/19 05:03:54;;;;;;;4.75;3.25;;;29.40;99.90;;;;;;5071620;28;20016;-48
2022/08/19 05:06:22;;;;;;;3.03;2.60;;;29.40;99.90;;;;;;5071810;28;20104;-48
2022/08/19 05:08:48;;;;;;;4.85;2.95;;;29.40;99.90;;;;;;5071732;28;20024;-48
2022/08/19 05:11:19;;;;;;;4.97;3.13;;;29.40;99.90;;;;;;5071542;28;20085;-48
2022/08/19 05:13:46;;;;;;;4.03;2.90;;;29.50;99.90;;;;;;5071478;28;20219;-48
2022/08/19 05:16:14;;;;;;;4.30;2.85;;;29.50;99.90;;;;;;5071508;28;20032;-49
2022/08/19 05:24:10;;;;;;;4.43;3.15;;;29.40;99.90;;;;;;5071658;28;20090;-49
2022/08/19 05:26:37;;;;;;;4.80;3.22;;;29.50;99.90;;;;;;5071372;28;20522;-49
2022/08/19 05:29:03;;;;;;;4.28;2.90;;;29.40;99.90;;;;;;5071144;28;20495;-49
2022/08/19 05:31:30;;;;;;;3.17;2.60;;;29.40;99.90;;;;;;5071421;28;20086;-48
2022/08/19 05:33:58;;;;;;;3.70;2.53;;;29.40;99.90;;;;;;5071236;28;20024;-49
2022/08/19 05:36:26;;;;;;;3.85;2.88;;;29.40;99.90;;;;;;5071404;28;20048;-49
2022/08/19 05:38:53;;;;;;;4.55;3.05;;;29.40;99.90;;;;;;5071457;28;20021;-49
2022/08/19 05:41:20;;;;;;;4.68;2.95;;;29.40;99.90;;;;;;5071265;28;20357;-49
2022/08/19 05:43:46;;;;;;;4.80;3.38;;;29.40;99.90;;;;;;5071260;28;20067;-49
2022/08/19 05:46:19;;;;;;;5.13;2.92;;;29.40;99.90;;;;;;5071104;28;20029;-49
2022/08/19 05:48:46;;;;;;;4.80;3.13;;;29.30;99.90;;;;;;5071032;28;20309;-48
2022/08/19 05:51:13;;;;;;;4.60;3.33;;;29.40;99.90;;;;;;5071009;28;20423;-48
2022/08/19 05:53:38;;;;;;;3.22;2.78;;;29.40;99.90;;;;;;5071157;28;20082;-48
2022/08/19 05:56:09;;;;;;;4.22;2.97;;;29.40;99.90;;;;;;5070894;28;20028;-48
2022/08/19 05:58:36;;;;;;;4.40;2.70;;;29.30;99.90;;;;;;5070805;28;20024;-49
2022/08/19 06:01:05;;;;;;;4.82;2.83;;;29.30;99.90;;;;;;5070911;28;20044;-48
2022/08/19 06:03:36;;;;;;;4.07;2.35;;;29.40;99.90;;;;;;5070856;28;20109;-48
2022/08/19 06:06:02;;;;;;;3.80;2.90;;;29.30;99.90;;;;;;5071036;28;20033;-48
2022/08/19 06:08:28;;;;;;;4.43;3.10;;;29.30;99.90;;;;;;5070722;28;20033;-48
2022/08/19 06:10:54;;;;;;;4.03;2.80;;;29.40;99.90;;;;;;5074075;28;20496;-49
2022/08/19 06:13:22;;;;;;;6.97;3.25;;;29.40;99.90;;;;;;5075021;28;20074;-49
2022/08/19 06:15:48;;;;;;;3.80;2.80;;;29.30;99.90;;;;;;5074813;28;20025;-49
2022/08/19 06:18:15;;;;;;;2.72;2.50;;;29.30;99.90;;;;;;5056771;28;20021;-49
2022/08/19 06:20:42;;;;;;;4.23;2.67;;;29.40;99.90;;;;;;5074718;28;20491;-49
2022/08/19 06:23:09;;;;;;;3.17;2.67;;;29.30;99.90;;;;;;5074746;28;20383;-48
2022/08/19 06:25:35;;;;;;;4.38;3.00;;;29.40;99.90;;;;;;5074579;28;20624;-48
2022/08/19 06:28:01;;;;;;;3.47;2.80;;;29.40;99.90;;;;;;5074609;28;20032;-49
2022/08/19 06:30:27;;;;;;;4.97;2.90;;;29.40;99.90;;;;;;5074582;28;20033;-49
2022/08/19 06:32:53;;;;;;;4.30;2.78;;;29.40;99.90;;;;;;5074572;28;20036;-49
2022/08/19 06:35:19;;;;;;;5.75;3.08;;;29.40;99.90;;;;;;5074349;28;20120;-49
2022/08/19 06:37:45;;;;;;;4.10;3.00;;;29.40;99.90;;;;;;5074333;28;20029;-49
2022/08/19 06:40:12;;;;;;;3.33;2.75;;;29.40;99.90;;;;;;5074492;28;20031;-50
2022/08/19 06:42:38;;;;;;;3.40;2.77;;;29.40;99.90;;;;;;5074204;28;20016;-49
2022/08/19 06:45:05;;;;;;;3.42;2.50;;;29.50;99.90;;;;;;5073950;28;20021;-49
2022/08/19 06:47:32;;;;;;;3.90;2.92;;;29.40;99.90;;;;;;5056093;28;20021;-49
2022/08/19 06:50:00;;;;;;;3.80;2.50;;;29.40;99.90;;;;;;5074104;28;20040;-49
2022/08/19 06:52:25;;;;;;;4.70;2.53;;;29.40;99.90;;;;;;5074110;28;20265;-49
2022/08/19 06:54:51;;;;;;;2.88;2.60;;;29.50;99.90;;;;;;5073955;28;20024;-48
2022/08/19 06:57:17;;;;;;;2.88;2.55;;;29.50;99.90;;;;;;5073884;28;20024;-48
2022/08/19 06:59:43;;;;;;;4.13;2.80;;;29.50;99.90;;;;;;5073760;28;20107;-49
2022/08/19 07:02:09;;;;;;;5.85;2.63;;;29.50;99.90;;;;;;5073855;28;20064;-49
2022/08/19 07:04:35;;;;;;;4.05;2.45;;;29.50;99.90;;;;;;5073714;28;20067;-49
2022/08/19 07:07:09;;;;;;;5.10;2.97;;;29.50;99.90;;;;;;5073638;28;20071;-49
2022/08/19 07:09:37;;;;;;;3.75;2.85;;;29.50;99.90;;;;;;5073535;28;20037;-49
2022/08/19 07:12:06;;;;;;;3.65;2.88;;;29.50;99.90;;;;;;5073507;28;20079;-49
2022/08/19 07:14:36;;;;;;;3.15;2.60;;;29.50;99.90;;;;;;5056161;28;20031;-48
2022/08/19 07:17:04;;;;;;;5.55;3.17;;;29.60;99.90;;;;;;5073560;28;20411;-48
2022/08/19 07:19:31;;;;;;;3.50;2.47;;;29.50;99.90;;;;;;5055764;28;20025;-49
2022/08/19 07:22:00;;;;;;;4.07;2.67;;;29.60;99.90;;;;;;5072261;28;20028;-49
2022/08/19 07:24:27;;;;;;;3.58;2.50;;;29.60;99.90;;;;;;5073445;28;20411;-49
2022/08/19 07:26:58;;;;;;;3.92;2.75;;;29.60;99.90;;;;;;5073387;28;20024;-49
2022/08/19 07:29:24;;;;;;;3.90;2.78;;;29.60;99.90;;;;;;5073107;28;20438;-53
2022/08/19 07:31:51;;;;;;;4.13;3.25;;;29.60;99.90;;;;;;5073144;28;20025;-49
2022/08/19 07:34:18;;;;;;;3.33;2.58;;;29.60;99.90;;;;;;5073274;28;20025;-49
2022/08/19 07:36:45;;;;;;;3.10;2.45;;;29.70;99.90;;;;;;5073039;28;20025;-49
2022/08/19 07:39:16;;;;;;;3.10;2.63;;;29.70;99.90;;;;;;5073094;28;20052;-49
2022/08/19 07:41:42;;;;;;;3.03;2.72;;;29.70;99.90;;;;;;5073091;28;20431;-50
2022/08/19 07:44:08;;;;;;;3.10;2.55;;;29.70;99.90;;;;;;5072629;28;20032;-49
2022/08/19 07:46:38;;;;;;;4.35;2.95;;;29.70;99.90;;;;;;5054812;28;20024;-49
2022/08/19 07:49:06;;;;;;;3.88;2.88;;;29.70;99.90;;;;;;5072840;28;20071;-49
2022/08/19 07:51:33;;;;;;;3.35;2.47;;;29.70;99.90;;;;;;5054993;28;20025;-49
2022/08/19 07:53:59;;;;;;;4.18;2.50;;;29.70;99.90;;;;;;5072845;28;20100;-49
2022/08/19 07:56:26;;;;;;;3.25;2.53;;;29.70;99.90;;;;;;5072552;28;20443;-49
2022/08/19 07:58:52;;;;;;;4.97;3.00;;;29.70;99.90;;;;;;5072688;28;20476;-49
2022/08/19 08:01:22;;;;;;;3.10;2.58;;;29.70;99.90;;;;;;5072778;28;20400;-49
2022/08/19 08:09:23;;;;;;;5.05;3.03;;;29.70;99.90;;;;;;5072612;28;20035;-48
2022/08/19 08:11:52;;;;;;;4.57;2.70;;;29.70;99.90;;;;;;5072591;28;20032;-49
2022/08/19 08:14:28;;;;;;;4.65;2.95;;;29.70;99.90;;;;;;5072354;28;20075;-49
2022/08/19 08:16:54;;;;;;;3.00;2.65;;;29.80;99.90;;;;;;5072391;28;20468;-49
2022/08/19 08:19:22;;;;;;;3.67;2.70;;;29.80;99.90;;;;;;5072343;28;20078;-49
2022/08/19 08:21:49;;;;;;;4.00;2.85;;;29.80;99.90;;;;;;5054260;28;20016;-49
2022/08/19 08:24:16;;;;;;;5.35;2.92;;;29.80;99.90;;;;;;5072457;28;20078;-49
2022/08/19 08:26:43;;;;;;;4.30;3.08;;;29.80;99.90;;;;;;5072150;28;20048;-49
2022/08/19 08:29:11;;;;;;;4.97;3.13;;;29.80;99.90;;;;;;5072080;28;20037;-49
2022/08/19 08:31:37;;;;;;;3.95;2.95;;;29.80;99.90;;;;;;5072111;28;20036;-49
2022/08/19 08:34:03;;;;;;;3.85;2.70;;;29.80;99.90;;;;;;5071763;28;20017;-49
2022/08/19 08:36:33;;;;;;;3.70;2.58;;;29.80;99.90;;;;;;5072163;28;20009;-49
2022/08/19 08:38:59;;;;;;;5.05;3.00;;;29.80;99.90;;;;;;5071936;28;20021;-49
2022/08/19 08:42:05;;;;;;;6.37;2.73;;;29.90;99.90;;;;;;5071848;28;20749;-49
2022/08/19 08:44:51;;;;;;;4.40;2.90;;;29.80;99.90;;;;;;5071898;28;20021;-49
2022/08/19 08:47:20;;;;;;;4.15;3.20;;;29.90;99.90;;;;;;5071823;28;20396;-49
2022/08/19 08:49:48;;;;;;;4.03;2.80;;;29.90;99.90;;;;;;5071594;28;20066;-50
2022/08/19 08:52:26;;;;;;;3.38;2.42;;;29.90;99.90;;;;;;5071649;28;20543;-50
2022/08/19 08:54:56;;;;;;;4.63;3.00;;;29.90;99.90;;;;;;5071800;28;20031;-50
2022/08/19 08:57:31;;;;;;;3.42;2.47;;;29.90;99.90;;;;;;5053533;28;20025;-50
2022/08/19 08:59:59;;;;;;;3.92;3.28;;;29.90;99.90;;;;;;5071396;28;20102;-49
2022/08/19 09:02:26;;;;;;;4.22;2.88;;;29.90;99.90;;;;;;5071499;28;20029;-50
2022/08/19 09:04:53;;;;;;;4.93;2.83;;;29.90;99.90;;;;;;5071573;28;20047;-49
2022/08/19 09:07:49;;;;;;;3.95;3.20;;;29.90;99.90;;;;;;5071551;28;20028;-49
2022/08/19 09:10:39;;;;;;;5.33;3.00;;;29.90;99.90;;;;;;5064952;28;20091;-49
2022/08/19 09:13:22;;;;;;;5.40;2.88;;;29.90;99.90;;;;;;5071497;28;20297;-49
2022/08/19 09:16:08;;;;;;;4.45;3.13;;;29.90;99.90;;;;;;5071370;28;20468;-49
2022/08/19 09:18:45;;;;;;;4.80;3.22;;;29.90;99.90;;;;;;5071470;28;20043;-49
2022/08/19 09:21:12;;;;;;;5.18;3.20;;;29.90;99.90;;;;;;5071323;28;20033;-49
2022/08/19 09:23:38;;;;;;;3.60;2.85;;;30.00;99.90;;;;;;5071521;28;20496;-49
2022/08/19 09:26:09;;;;;;;3.08;2.65;;;30.00;99.90;;;;;;5071222;28;20104;-49
2022/08/19 09:28:36;;;;;;;5.05;2.70;;;30.00;99.90;;;;;;5071660;28;20126;-49
2022/08/19 09:31:02;;;;;;;4.55;3.00;;;30.00;99.90;;;;;;5071168;28;20029;-49
2022/08/19 09:33:28;;;;;;;6.28;3.78;;;30.00;99.90;;;;;;5071166;28;20028;-49
2022/08/19 09:36:09;;;;;;;4.45;3.20;;;30.00;99.90;;;;;;5071075;28;20078;-49
2022/08/19 09:38:39;;;;;;;3.95;3.17;;;30.00;99.90;;;;;;5071415;28;20456;-48
2022/08/19 09:41:07;;;;;;;4.40;3.05;;;30.00;99.90;;;;;;5071532;28;20028;-48
2022/08/19 09:43:36;;;;;;;4.00;2.75;;;30.00;99.90;;;;;;5070687;28;20033;-48
2022/08/19 09:46:08;;;;;;;4.60;2.95;;;30.00;99.90;;;;;;5070685;28;20032;-49
2022/08/19 09:48:41;;;;;;;5.95;3.58;;;30.00;99.90;;;;;;5070891;28;20365;-49
2022/08/19 09:51:10;;;;;;;5.35;3.20;;;30.10;99.90;;;;;;5071076;28;20044;-49
2022/08/19 09:53:36;;;;;;;4.28;2.90;;;30.00;99.90;;;;;;5070935;28;20028;-49
2022/08/19 09:56:03;;;;;;;4.43;2.93;;;30.00;99.90;;;;;;5070862;28;20104;-49
2022/08/19 09:58:30;;;;;;;3.30;2.88;;;30.10;99.90;;;;;;5070827;28;20020;-49
2022/08/19 10:00:58;;;;;;;4.32;3.05;;;30.10;99.90;;;;;;5070588;28;20047;-49
2022/08/19 10:03:24;;;;;;;6.63;3.20;;;30.10;99.90;;;;;;5070672;28;20405;-49
2022/08/19 10:05:50;;;;;;;5.13;3.13;;;30.10;99.90;;;;;;5070784;28;20078;-49
2022/08/19 10:08:23;;;;;;;5.07;3.88;;;30.10;99.90;;;;;;5070404;28;20625;-48
2022/08/19 10:10:50;;;;;;;5.35;2.97;;;30.10;99.90;;;;;;5070563;28;20044;-49
2022/08/19 10:13:17;;;;;;;;;;;30.10;99.90;;;;;;5071149;28;20027;-49
2022/08/19 10:15:44;;;;;;;4.53;3.65;;;30.20;99.90;;;;;;5070826;28;19912;-48
2022/08/19 10:18:10;;;;;;;7.55;4.63;;;30.20;99.90;;;;;;5070837;28;20020;-49
2022/08/19 10:20:37;;;;;;;4.82;3.90;;;30.10;99.90;;;;;;5070402;28;20032;-49
2022/08/19 10:23:03;;;;;;;5.25;3.90;;;30.20;99.90;;;;;;5070586;28;20052;-49
2022/08/19 10:25:29;;;;;;;6.17;4.10;;;30.20;99.90;;;;;;5070541;28;20090;-49
2022/08/19 10:27:55;;;;;;;5.88;4.05;;;30.20;99.90;;;;;;5070480;28;20285;-49
2022/08/19 10:30:21;;;;;;;4.78;3.50;;;30.20;99.90;;;;;;5052530;28;20029;-49
2022/08/19 10:32:46;;;;;;;4.38;3.70;;;30.20;99.90;;;;;;5070535;28;20025;-49
2022/08/19 10:35:13;;;;;;;5.53;4.93;;;30.20;99.90;;;;;;5052711;28;20035;-48
2022/08/19 10:37:39;;;;;;;5.80;4.60;;;30.30;99.90;;;;;;5070660;28;20111;-49
2022/08/19 10:40:07;;;;;;;5.77;3.93;;;30.30;99.90;;;;;;5070583;28;20536;-48
2022/08/19 10:42:34;;;;;;;5.22;4.10;;;30.30;99.90;;;;;;5070537;28;20460;-49
2022/08/19 10:45:01;;;;;;;7.25;4.38;;;30.30;99.90;;;;;;5070398;28;20021;-49
2022/08/19 10:47:27;;;;;;;5.13;3.75;;;30.30;99.90;;;;;;5070276;28;20048;-49
2022/08/19 10:52:44;;;;;;;6.47;4.20;;;30.30;99.90;;;;;;5070369;28;20035;-49
2022/08/19 10:57:56;;;;;;;4.95;3.80;;;30.30;99.90;;;;;;5074141;28;20391;-50
2022/08/19 11:00:24;;;;;;;7.15;4.63;;;30.40;99.90;;;;;;5073788;28;20051;-49
2022/08/19 11:02:50;;;;;;;4.45;4.03;;;30.40;99.90;;;;;;5073823;28;20033;-50
2022/08/19 11:05:17;;;;;;;6.00;4.38;;;30.40;99.90;;;;;;5073745;28;20031;-49
2022/08/19 11:07:44;;;;;;;5.68;4.22;;;30.40;99.90;;;;;;5073936;28;20133;-49
2022/08/19 11:10:12;;;;;;;5.60;4.18;;;30.40;99.90;;;;;;5073597;28;20040;-49
2022/08/19 11:12:40;;;;;;;5.75;4.32;;;30.50;99.90;;;;;;5073522;28;20025;-49
2022/08/19 11:15:10;;;;;;;6.75;4.72;;;30.40;99.90;;;;;;5073555;28;20115;-49
2022/08/19 11:17:43;;;;;;;6.30;4.30;;;30.50;99.90;;;;;;5073447;28;20025;-49
2022/08/19 11:20:13;;;;;;;5.78;4.45;;;30.50;99.90;;;;;;5073572;28;20043;-50
2022/08/19 11:22:40;;;;;;;5.88;4.53;;;30.50;99.90;;;;;;5073387;28;20016;-49
2022/08/19 11:25:06;;;;;;;5.32;4.25;;;30.50;99.90;;;;;;5073366;28;20502;-49
2022/08/19 11:27:33;;;;;;;5.40;4.45;;;30.50;99.90;;;;;;5073286;28;20024;-49
2022/08/19 11:30:00;;;;;;;5.90;4.03;;;30.60;99.90;;;;;;5073191;28;20036;-50
2022/08/19 11:32:26;;;;;;;5.72;4.40;;;30.60;99.90;;;;;;5073103;28;20031;-50
2022/08/19 11:34:53;;;;;;;7.25;4.65;;;30.60;99.90;;;;;;5073112;28;20024;-49
2022/08/19 11:37:18;;;;;;;6.90;4.25;;;30.60;99.90;;;;;;5073174;28;20138;-49
2022/08/19 11:39:44;;;;;;;6.40;4.95;;;30.60;99.90;;;;;;5073548;28;20458;-49
2022/08/19 11:45:12;;;;;;;6.45;4.97;;;30.60;99.90;;;;;;4991578;28;20487;-51
2022/08/19 11:47:38;;;;;;;6.28;4.75;;;30.70;99.90;;;;;;5056392;28;20632;-49
2022/08/19 11:50:05;;;;;;;6.07;4.82;;;30.70;99.90;;;;;;5072709;28;20040;-49
2022/08/19 11:52:31;;;;;;;5.88;5.07;;;30.70;99.90;;;;;;5072785;28;20533;-49
2022/08/19 11:54:57;;;;;;;5.97;4.32;;;30.70;99.90;;;;;;5072751;28;20037;-50
2022/08/19 11:57:23;;;;;;;7.43;4.55;;;30.70;99.90;;;;;;5072678;28;20108;-49
2022/08/19 11:59:51;;;;;;;5.50;4.45;;;30.70;99.90;;;;;;5072900;28;20047;-50
2022/08/19 12:02:18;;;;;;;6.20;4.35;;;30.70;99.90;;;;;;5073063;28;20028;-51
2022/08/19 12:04:44;;;;;;;;;;;30.80;99.90;;;;;;5073436;28;20048;-50
2022/08/19 12:07:10;;;;;;;4.88;4.13;;;30.80;99.90;;;;;;5071870;28;20375;-50
2022/08/19 12:09:35;;;;;;;8.07;5.30;;;30.80;99.90;;;;;;5072407;28;20075;-49
2022/08/19 12:12:02;;;;;;;6.78;4.75;;;30.80;99.90;;;;;;5072457;28;20020;-50
2022/08/19 12:14:30;;;;;;;6.10;5.00;;;30.80;99.90;;;;;;5072278;28;20048;-50
2022/08/19 12:16:56;;;;;;;7.07;5.22;;;30.80;99.90;;;;;;5054352;28;20546;-49
2022/08/19 12:19:22;;;;;;;7.40;5.40;;;30.80;99.90;;;;;;5072279;28;20078;-49
2022/08/19 12:21:48;;;;;;;8.15;5.03;;;30.90;99.90;;;;;;5072538;28;20032;-49
2022/08/19 12:24:14;;;;;;;5.17;4.03;;;30.90;99.90;;;;;;5072191;28;20023;-49
2022/08/19 12:26:41;;;;;;;6.75;4.72;;;30.90;99.90;;;;;;5054497;28;20421;-49
2022/08/19 12:29:08;;;;;;;6.72;5.07;;;30.90;99.90;;;;;;5072095;28;20074;-49
2022/08/19 12:31:34;;;;;;;7.45;5.00;;;30.90;99.90;;;;;;5072152;28;20025;-49
2022/08/19 12:34:00;;;;;;;6.38;5.07;;;30.90;99.90;;;;;;5072162;28;20024;-49
2022/08/19 12:36:26;;;;;;;6.38;4.68;;;30.90;99.90;;;;;;5071963;28;20036;-49
2022/08/19 12:38:52;;;;;;;5.50;4.85;;;31.00;99.90;;;;;;5071929;28;20035;-49
2022/08/19 12:41:21;;;;;;;7.70;5.35;;;31.00;99.90;;;;;;5072253;28;20024;-49
2022/08/19 12:43:49;;;;;;;7.90;5.43;;;31.00;99.90;;;;;;5071965;28;20505;-49
2022/08/19 12:46:15;;;;;;;6.72;5.00;;;31.00;99.90;;;;;;5071719;28;20102;-49
2022/08/19 12:48:41;;;;;;;6.38;4.88;;;31.00;99.90;;;;;;5071844;28;20086;-49
2022/08/19 12:51:09;;;;;;;6.40;4.80;;;31.00;99.90;;;;;;5071826;28;20032;-49
2022/08/19 12:53:35;;;;;;;6.10;4.75;;;31.00;99.90;;;;;;5053927;28;20020;-48
2022/08/19 12:56:01;;;;;;;7.00;4.65;;;31.10;99.90;;;;;;5071789;28;20028;-49
2022/08/19 12:58:29;;;;;;;7.43;5.18;;;31.10;99.90;;;;;;5053738;28;20384;-48
2022/08/19 13:00:54;;;;;;;6.28;4.80;;;31.10;99.90;;;;;;5071330;28;20056;-49
2022/08/19 13:03:22;;;;;;;6.35;4.53;;;31.10;99.90;;;;;;5071764;28;20423;-49
2022/08/19 13:05:50;;;;;;;;;;;31.10;99.90;;;;;;5072191;28;20032;-49
2022/08/19 13:08:16;;;;;;;6.20;4.90;;;31.10;99.90;;;;;;5071275;28;19938;-49
2022/08/19 13:10:42;;;;;;;6.60;4.72;;;31.20;99.90;;;;;;5071237;28;20094;-49
2022/08/19 13:13:09;;;;;;;5.70;4.60;;;31.20;99.90;;;;;;5071388;28;20024;-49
2022/08/19 13:15:39;;;;;;;5.63;4.72;;;31.20;99.90;;;;;;5053479;28;20032;-49